^^

..:: Storico WU ::..




Lo storico viene creato da WUnderground con i dati che la stazione Meteomincio invia al loro server. L' aggiornamento viene fatto ogni 5 minuti circa, tuttavia possono esserci intervalli pił ampi a causa di errori, interruzioni di servizio o problemi nell' invio tramite FTP.


Storico stazione MeteoMincio
Giorno Sommario per Luglio 13, 2022 Unità:  Inglese    Metrico   Entrambi
Giorno Settimana Mese Anno
  Max: Min: Media:
Temperatura: 89.6 °F 68 °F 79.5 °F
Dew Point: 68 °F 60.8 °F 64.8 °F
Umidità: 83% 40% 63%
Velocità vento: 8.7mph 0mph 4.5mph
Raffica: 11.8mph - -
Direzione- - ESE
Pressione: 30.2 in 30.1 in -
Precipitazioni: 0 in    
 
 
Tabulato Dati per Luglio 13, 2022
Ora Temperatura Dew Point Pressione Direzione Velocità vento Raffica Umidità Intensità pioggia (oraria) Info solare Situazione
00:04 75.2 °F 62.6 °F 30.1 in East 3.7 mph 6.2 mph 68% 0 in 0.00 W/m2 unknown
00:09 73.4 °F 62.6 °F 30.1 in ENE 3.1 mph 5 mph 68% 0 in 0.00 W/m2 unknown
00:14 73.4 °F 62.6 °F 30.1 in ENE 3.7 mph 5 mph 68% 0 in 0.00 W/m2 unknown
00:19 73.4 °F 62.6 °F 30.1 in ENE 3.7 mph 5 mph 69% 0 in 0.00 W/m2 unknown
00:24 73.4 °F 62.6 °F 30.1 in ENE 4.3 mph 5 mph 69% 0 in 0.00 W/m2 unknown
00:29 73.4 °F 62.6 °F 30.1 in ENE 3.7 mph 5 mph 70% 0 in 0.00 W/m2 unknown
00:34 73.4 °F 62.6 °F 30.1 in NE 3.1 mph 5 mph 70% 0 in 0.00 W/m2 unknown
00:39 73.4 °F 62.6 °F 30.1 in NE 4.3 mph 6.8 mph 70% 0 in 0.00 W/m2 unknown
00:44 73.4 °F 62.6 °F 30.1 in NE 4.3 mph 6.8 mph 70% 0 in 0.00 W/m2 unknown
00:49 73.4 °F 62.6 °F 30.1 in ENE 5 mph 6.8 mph 71% 0 in 0.00 W/m2 unknown
00:54 73.4 °F 62.6 °F 30.1 in NE 3.7 mph 6.2 mph 71% 0 in 0.00 W/m2 unknown
00:59 73.4 °F 62.6 °F 30.1 in NE 5.6 mph 6.8 mph 71% 0 in 0.00 W/m2 unknown
01:04 73.4 °F 62.6 °F 30.2 in NE 6.8 mph 9.3 mph 72% 0 in 0.00 W/m2 unknown
01:09 73.4 °F 62.6 °F 30.2 in ENE 6.2 mph 9.3 mph 73% 0 in 0.00 W/m2 unknown
01:14 71.6 °F 62.6 °F 30.2 in NE 6.2 mph 9.3 mph 73% 0 in 0.00 W/m2 unknown
01:19 71.6 °F 62.6 °F 30.2 in ENE 5.6 mph 8.7 mph 73% 0 in 0.00 W/m2 unknown
01:24 71.6 °F 62.6 °F 30.2 in ENE 5 mph 8.1 mph 73% 0 in 0.00 W/m2 unknown
01:29 71.6 °F 62.6 °F 30.2 in ENE 5 mph 8.1 mph 74% 0 in 0.00 W/m2 unknown
01:34 71.6 °F 62.6 °F 30.2 in ENE 6.8 mph 9.3 mph 74% 0 in 0.00 W/m2 unknown
01:39 71.6 °F 62.6 °F 30.2 in ENE 5 mph 8.7 mph 75% 0 in 0.00 W/m2 unknown
01:44 71.6 °F 62.6 °F 30.2 in ENE 3.7 mph 6.8 mph 75% 0 in 0.00 W/m2 unknown
01:49 69.8 °F 62.6 °F 30.2 in ENE 3.7 mph 6.8 mph 75% 0 in 0.00 W/m2 unknown
01:54 69.8 °F 62.6 °F 30.2 in ENE 3.1 mph 5 mph 76% 0 in 0.00 W/m2 unknown
01:59 69.8 °F 62.6 °F 30.2 in ENE 4.3 mph 5 mph 76% 0 in 0.00 W/m2 unknown
02:04 69.8 °F 62.6 °F 30.2 in ENE 6.8 mph 8.1 mph 77% 0 in 0.00 W/m2 unknown
02:09 69.8 °F 62.6 °F 30.2 in ENE 6.2 mph 8.1 mph 77% 0 in 0.00 W/m2 unknown
02:14 69.8 °F 62.6 °F 30.2 in ENE 6.2 mph 9.3 mph 78% 0 in 0.00 W/m2 unknown
02:19 69.8 °F 62.6 °F 30.2 in ENE 4.3 mph 6.8 mph 78% 0 in 0.00 W/m2 unknown
02:24 69.8 °F 62.6 °F 30.2 in ENE 4.3 mph 6.8 mph 79% 0 in 0.00 W/m2 unknown
02:29 69.8 °F 62.6 °F 30.2 in ENE 3.7 mph 5 mph 79% 0 in 0.00 W/m2 unknown
02:34 69.8 °F 62.6 °F 30.2 in NE 4.3 mph 5 mph 79% 0 in 0.00 W/m2 unknown
02:39 69.8 °F 64.4 °F 30.2 in ENE 5.6 mph 8.1 mph 79% 0 in 0.00 W/m2 unknown
02:44 69.8 °F 64.4 °F 30.2 in ENE 6.2 mph 9.3 mph 79% 0 in 0.00 W/m2 unknown
02:49 69.8 °F 64.4 °F 30.2 in ENE 6.2 mph 8.7 mph 80% 0 in 0.00 W/m2 unknown
02:54 69.8 °F 64.4 °F 30.2 in ENE 6.2 mph 8.1 mph 80% 0 in 0.00 W/m2 unknown
02:59 69.8 °F 64.4 °F 30.2 in ENE 5 mph 8.1 mph 80% 0 in 0.00 W/m2 unknown
03:04 69.8 °F 64.4 °F 30.2 in ENE 3.1 mph 6.8 mph 80% 0 in 0.00 W/m2 unknown
03:09 69.8 °F 64.4 °F 30.2 in ENE 3.1 mph 6.2 mph 80% 0 in 0.00 W/m2 unknown
03:14 69.8 °F 64.4 °F 30.2 in ENE 4.3 mph 6.8 mph 80% 0 in 0.00 W/m2 unknown
03:19 69.8 °F 62.6 °F 30.2 in ENE 5 mph 6.8 mph 80% 0 in 0.00 W/m2 unknown
03:24 69.8 °F 62.6 °F 30.2 in ENE 5.6 mph 6.8 mph 80% 0 in 0.00 W/m2 unknown
03:29 69.8 °F 62.6 °F 30.2 in ENE 5.6 mph 6.8 mph 80% 0 in 0.00 W/m2 unknown
03:34 69.8 °F 62.6 °F 30.2 in ENE 5 mph 6.8 mph 79% 0 in 0.00 W/m2 unknown
03:39 69.8 °F 62.6 °F 30.2 in ENE 5 mph 6.8 mph 79% 0 in 0.00 W/m2 unknown
03:44 69.8 °F 62.6 °F 30.2 in ENE 4.3 mph 5 mph 79% 0 in 0.00 W/m2 unknown
03:49 69.8 °F 62.6 °F 30.2 in ENE 4.3 mph 5 mph 79% 0 in 0.00 W/m2 unknown
03:54 69.8 °F 62.6 °F 30.2 in ENE 3.7 mph 5 mph 79% 0 in 0.00 W/m2 unknown
03:59 69.8 °F 62.6 °F 30.2 in ENE 3.7 mph 6.2 mph 79% 0 in 0.00 W/m2 unknown
04:04 69.8 °F 62.6 °F 30.2 in ENE 3.1 mph 6.2 mph 79% 0 in 0.00 W/m2 unknown
04:09 69.8 °F 62.6 °F 30.2 in ENE 5 mph 6.8 mph 79% 0 in 0.00 W/m2 unknown
04:14 69.8 °F 62.6 °F 30.2 in ENE 5 mph 6.8 mph 79% 0 in 0.00 W/m2 unknown
04:19 69.8 °F 62.6 °F 30.2 in ENE 5.6 mph 8.1 mph 79% 0 in 0.00 W/m2 unknown
04:24 69.8 °F 62.6 °F 30.2 in ENE 6.2 mph 8.1 mph 79% 0 in 0.00 W/m2 unknown
04:29 69.8 °F 62.6 °F 30.2 in ENE 6.8 mph 9.3 mph 79% 0 in 0.00 W/m2 unknown
04:34 69.8 °F 62.6 °F 30.2 in ENE 6.8 mph 9.3 mph 79% 0 in 0.00 W/m2 unknown
04:39 69.8 °F 62.6 °F 30.2 in ENE 6.8 mph 9.3 mph 79% 0 in 0.00 W/m2 unknown
04:44 69.8 °F 62.6 °F 30.2 in ENE 6.8 mph 8.7 mph 79% 0 in 0.00 W/m2 unknown
04:49 69.8 °F 62.6 °F 30.2 in ENE 6.8 mph 9.3 mph 79% 0 in 0.00 W/m2 unknown
04:54 69.8 °F 62.6 °F 30.2 in ENE 6.2 mph 8.1 mph 80% 0 in 0.00 W/m2 unknown
04:59 69.8 °F 62.6 °F 30.2 in ENE 6.8 mph 9.3 mph 80% 0 in 0.00 W/m2 unknown
05:04 69.8 °F 62.6 °F 30.2 in ENE 6.8 mph 9.3 mph 80% 0 in 0.00 W/m2 unknown
05:09 69.8 °F 62.6 °F 30.2 in ENE 5.6 mph 8.1 mph 80% 0 in 0.00 W/m2 unknown
05:14 69.8 °F 62.6 °F 30.2 in East 6.8 mph 10.6 mph 81% 0 in 0.00 W/m2 unknown
05:19 69.8 °F 62.6 °F 30.2 in ENE 6.2 mph 9.9 mph 80% 0 in 0.00 W/m2 unknown
05:24 69.8 °F 62.6 °F 30.2 in ENE 6.2 mph 8.7 mph 80% 0 in 0.00 W/m2 unknown
05:29 69.8 °F 62.6 °F 30.2 in ENE 5 mph 8.1 mph 80% 0 in 0.00 W/m2 unknown
05:34 69.8 °F 62.6 °F 30.2 in ENE 4.3 mph 6.8 mph 81% 0 in 0.00 W/m2 unknown
05:39 69.8 °F 62.6 °F 30.2 in ENE 4.3 mph 6.8 mph 81% 0 in 0.00 W/m2 unknown
05:44 69.8 °F 62.6 °F 30.2 in ENE 4.3 mph 6.8 mph 81% 0 in 0.00 W/m2 unknown
05:49 69.8 °F 62.6 °F 30.2 in East 5 mph 6.8 mph 81% 0 in 5.00 W/m2 unknown
05:54 69.8 °F 62.6 °F 30.2 in ENE 3.7 mph 6.8 mph 82% 0 in 7.00 W/m2 unknown
05:59 69.8 °F 62.6 °F 30.2 in East 3.1 mph 5 mph 82% 0 in 9.00 W/m2 unknown
06:04 68 °F 62.6 °F 30.2 in East 2.5 mph 5 mph 82% 0 in 12.00 W/m2 unknown
06:09 68 °F 62.6 °F 30.2 in East 3.1 mph 5 mph 83% 0 in 14.00 W/m2 unknown
06:14 68 °F 62.6 °F 30.2 in ENE 3.1 mph 5 mph 83% 0 in 16.00 W/m2 unknown
06:19 68 °F 62.6 °F 30.2 in East 3.1 mph 5 mph 83% 0 in 18.00 W/m2 unknown
06:24 69.8 °F 64.4 °F 30.2 in ENE 4.3 mph 6.8 mph 83% 0 in 21.00 W/m2 unknown
06:29 69.8 °F 64.4 °F 30.2 in ENE 4.3 mph 6.8 mph 82% 0 in 23.00 W/m2 unknown
06:34 69.8 °F 64.4 °F 30.2 in East 5 mph 6.8 mph 82% 0 in 28.00 W/m2 unknown
06:39 69.8 °F 64.4 °F 30.2 in East 5 mph 6.8 mph 82% 0 in 33.00 W/m2 unknown
06:44 69.8 °F 64.4 °F 30.2 in ENE 5 mph 8.1 mph 82% 0 in 42.00 W/m2 unknown
06:49 69.8 °F 64.4 °F 30.2 in ENE 5 mph 8.1 mph 81% 0 in 51.00 W/m2 unknown
06:54 69.8 °F 64.4 °F 30.2 in ENE 4.3 mph 6.8 mph 81% 0 in 60.00 W/m2 unknown
06:59 71.6 °F 64.4 °F 30.2 in ENE 5.6 mph 9.3 mph 81% 0 in 70.00 W/m2 unknown
07:04 71.6 °F 64.4 °F 30.2 in East 5.6 mph 8.7 mph 81% 0 in 84.00 W/m2 unknown
07:09 71.6 °F 64.4 °F 30.2 in ENE 5 mph 8.1 mph 81% 0 in 97.00 W/m2 unknown
07:14 71.6 °F 64.4 °F 30.2 in ENE 5.6 mph 6.8 mph 81% 0 in 107.00 W/m2 unknown
07:19 71.6 °F 64.4 °F 30.2 in East 5 mph 6.8 mph 80% 0 in 121.00 W/m2 unknown
07:24 71.6 °F 66.2 °F 30.2 in East 5.6 mph 6.8 mph 80% 0 in 135.00 W/m2 unknown
07:29 71.6 °F 66.2 °F 30.2 in ENE 6.2 mph 6.8 mph 80% 0 in 151.00 W/m2 unknown
07:34 71.6 °F 66.2 °F 30.2 in East 7.5 mph 9.3 mph 80% 0 in 162.00 W/m2 unknown
07:39 73.4 °F 66.2 °F 30.2 in East 7.5 mph 9.3 mph 79% 0 in 179.00 W/m2 unknown
07:44 73.4 °F 66.2 °F 30.2 in East 6.2 mph 9.3 mph 78% 0 in 190.00 W/m2 unknown
07:49 73.4 °F 66.2 °F 30.2 in ENE 7.5 mph 10.6 mph 78% 0 in 202.00 W/m2 unknown
07:54 73.4 °F 66.2 °F 30.2 in East 6.8 mph 9.9 mph 77% 0 in 216.00 W/m2 unknown
07:59 73.4 °F 66.2 °F 30.2 in East 7.5 mph 9.3 mph 76% 0 in 227.00 W/m2 unknown
08:04 73.4 °F 66.2 °F 30.2 in East 6.8 mph 11.8 mph 76% 0 in 243.00 W/m2 unknown
08:09 73.4 °F 66.2 °F 30.2 in East 6.8 mph 9.9 mph 75% 0 in 258.00 W/m2 unknown
08:14 75.2 °F 66.2 °F 30.2 in East 6.8 mph 9.9 mph 75% 0 in 271.00 W/m2 unknown
08:19 75.2 °F 66.2 °F 30.2 in East 6.8 mph 9.3 mph 75% 0 in 285.00 W/m2 unknown
08:24 75.2 °F 66.2 °F 30.2 in ENE 8.1 mph 10.6 mph 74% 0 in 295.00 W/m2 unknown
08:29 75.2 °F 66.2 °F 30.2 in East 6.8 mph 9.9 mph 74% 0 in 311.00 W/m2 unknown
08:34 75.2 °F 66.2 °F 30.2 in East 6.2 mph 8.7 mph 74% 0 in 329.00 W/m2 unknown
08:39 75.2 °F 66.2 °F 30.2 in ENE 6.2 mph 8.1 mph 74% 0 in 343.00 W/m2 unknown
08:44 77 °F 66.2 °F 30.2 in East 6.2 mph 8.7 mph 73% 0 in 357.00 W/m2 unknown
08:49 77 °F 66.2 °F 30.2 in East 7.5 mph 10.6 mph 73% 0 in 369.00 W/m2 unknown
08:54 77 °F 68 °F 30.2 in ENE 7.5 mph 9.9 mph 73% 0 in 385.00 W/m2 unknown
08:59 77 °F 68 °F 30.2 in East 7.5 mph 10.6 mph 72% 0 in 399.00 W/m2 unknown
09:04 77 °F 68 °F 30.2 in East 6.2 mph 9.9 mph 73% 0 in 415.00 W/m2 unknown
09:09 77 °F 68 °F 30.2 in East 6.2 mph 8.7 mph 72% 0 in 427.00 W/m2 unknown
09:14 77 °F 68 °F 30.2 in East 8.7 mph 10.6 mph 72% 0 in 439.00 W/m2 unknown
09:19 77 °F 68 °F 30.2 in East 8.1 mph 9.3 mph 71% 0 in 450.00 W/m2 unknown
09:24 78.8 °F 68 °F 30.2 in East 7.5 mph 9.9 mph 71% 0 in 466.00 W/m2 unknown
09:29 78.8 °F 68 °F 30.2 in East 7.5 mph 10.6 mph 70% 0 in 480.00 W/m2 unknown
09:34 78.8 °F 68 °F 30.2 in East 7.5 mph 10.6 mph 70% 0 in 494.00 W/m2 unknown
09:39 78.8 °F 68 °F 30.2 in East 7.5 mph 9.9 mph 69% 0 in 503.00 W/m2 unknown
09:44 78.8 °F 68 °F 30.2 in ESE 8.7 mph 11.2 mph 68% 0 in 520.00 W/m2 unknown
09:49 78.8 °F 68 °F 30.2 in ESE 8.7 mph 11.8 mph 67% 0 in 527.00 W/m2 unknown
09:54 78.8 °F 68 °F 30.2 in East 6.8 mph 11.8 mph 66% 0 in 545.00 W/m2 unknown
09:59 80.6 °F 66.2 °F 30.2 in ESE 6.2 mph 10.6 mph 64% 0 in 555.00 W/m2 unknown
10:04 80.6 °F 66.2 °F 30.2 in ESE 6.8 mph 9.9 mph 63% 0 in 570.00 W/m2 unknown
10:09 80.6 °F 66.2 °F 30.2 in East 6.2 mph 9.3 mph 63% 0 in 582.00 W/m2 unknown
10:14 80.6 °F 66.2 °F 30.2 in ESE 8.7 mph 11.2 mph 62% 0 in 598.00 W/m2 unknown
10:19 80.6 °F 66.2 °F 30.2 in East 8.7 mph 11.8 mph 61% 0 in 601.00 W/m2 unknown
10:24 80.6 °F 66.2 °F 30.2 in ESE 8.1 mph 11.8 mph 61% 0 in 610.00 W/m2 unknown
10:29 80.6 °F 66.2 °F 30.2 in East 6.8 mph 11.8 mph 61% 0 in 624.00 W/m2 unknown
10:34 80.6 °F 66.2 °F 30.2 in ESE 8.1 mph 10.6 mph 61% 0 in 635.00 W/m2 unknown
10:39 80.6 °F 66.2 °F 30.2 in East 8.7 mph 10.6 mph 61% 0 in 642.00 W/m2 unknown
10:44 82.4 °F 66.2 °F 30.2 in East 6.8 mph 9.9 mph 61% 0 in 654.00 W/m2 unknown
10:49 82.4 °F 66.2 °F 30.2 in ENE 6.2 mph 8.7 mph 60% 0 in 668.00 W/m2 unknown
10:54 82.4 °F 66.2 °F 30.2 in East 6.2 mph 9.3 mph 59% 0 in 680.00 W/m2 unknown
10:59 82.4 °F 66.2 °F 30.2 in ESE 6.8 mph 9.3 mph 60% 0 in 687.00 W/m2 unknown
11:04 82.4 °F 66.2 °F 30.2 in ESE 8.1 mph 9.9 mph 61% 0 in 700.00 W/m2 unknown
11:09 82.4 °F 66.2 °F 30.2 in ESE 8.7 mph 10.6 mph 59% 0 in 712.00 W/m2 unknown
11:14 82.4 °F 66.2 °F 30.2 in East 7.5 mph 10.6 mph 60% 0 in 714.00 W/m2 unknown
11:19 82.4 °F 68 °F 30.2 in East 8.1 mph 11.8 mph 60% 0 in 724.00 W/m2 unknown
11:24 82.4 °F 66.2 °F 30.2 in East 8.7 mph 11.8 mph 59% 0 in 742.00 W/m2 unknown
11:29 82.4 °F 66.2 °F 30.2 in SE 6.8 mph 11.8 mph 57% 0 in 747.00 W/m2 unknown
11:34 82.4 °F 64.4 °F 30.2 in ESE 4.3 mph 6.2 mph 55% 0 in 752.00 W/m2 unknown
11:39 82.4 °F 66.2 °F 30.2 in East 5.6 mph 8.1 mph 58% 0 in 759.00 W/m2 unknown
11:44 84.2 °F 66.2 °F 30.2 in East 6.2 mph 8.1 mph 58% 0 in 766.00 W/m2 unknown
11:49 82.4 °F 66.2 °F 30.2 in East 5.6 mph 8.1 mph 58% 0 in 772.00 W/m2 unknown
11:54 84.2 °F 66.2 °F 30.2 in ESE 8.1 mph 10.6 mph 57% 0 in 782.00 W/m2 unknown
11:59 82.4 °F 64.4 °F 30.2 in East 6.8 mph 10.6 mph 54% 0 in 784.00 W/m2 unknown
12:04 84.2 °F 66.2 °F 30.2 in South 3.1 mph 9.9 mph 57% 0 in 791.00 W/m2 unknown
12:09 84.2 °F 66.2 °F 30.2 in SSW 3.7 mph 6.2 mph 57% 0 in 800.00 W/m2 unknown
12:14 84.2 °F 66.2 °F 30.2 in ESE 5 mph 6.8 mph 56% 0 in 803.00 W/m2 unknown
12:19 86 °F 68 °F 30.2 in SW 4.3 mph 8.1 mph 56% 0 in 812.00 W/m2 unknown
12:24 86 °F 68 °F 30.2 in ENE 6.8 mph 10.6 mph 56% 0 in 821.00 W/m2 unknown
12:29 86 °F 66.2 °F 30.2 in ENE 7.5 mph 9.9 mph 54% 0 in 821.00 W/m2 unknown
12:34 86 °F 68 °F 30.2 in East 5 mph 8.7 mph 55% 0 in 828.00 W/m2 unknown
12:39 86 °F 66.2 °F 30.2 in East 5.6 mph 8.1 mph 55% 0 in 828.00 W/m2 unknown
12:44 84.2 °F 66.2 °F 30.2 in East 5.6 mph 8.1 mph 53% 0 in 837.00 W/m2 unknown
12:49 86 °F 64.4 °F 30.2 in East 6.8 mph 9.3 mph 51% 0 in 838.00 W/m2 unknown
12:54 84.2 °F 66.2 °F 30.2 in ESE 6.2 mph 8.7 mph 53% 0 in 842.00 W/m2 unknown
12:59 86 °F 66.2 °F 30.2 in North 3.1 mph 6.8 mph 53% 0 in 846.00 W/m2 unknown
13:04 86 °F 68 °F 30.2 in North 4.3 mph 5 mph 54% 0 in 847.00 W/m2 unknown
13:09 86 °F 66.2 °F 30.2 in NNE 6.8 mph 8.7 mph 51% 0 in 847.00 W/m2 unknown
13:14 86 °F 66.2 °F 30.2 in ENE 6.8 mph 9.3 mph 51% 0 in 851.00 W/m2 unknown
13:19 86 °F 66.2 °F 30.2 in East 7.5 mph 8.7 mph 52% 0 in 853.00 W/m2 unknown
13:24 86 °F 66.2 °F 30.2 in ESE 7.5 mph 9.3 mph 51% 0 in 854.00 W/m2 unknown
13:29 86 °F 66.2 °F 30.2 in West 3.1 mph 8.7 mph 53% 0 in 854.00 W/m2 unknown
13:34 86 °F 66.2 °F 30.2 in NE 6.8 mph 9.3 mph 52% 0 in 856.00 W/m2 unknown
13:39 86 °F 66.2 °F 30.2 in NE 6.2 mph 8.7 mph 52% 0 in 856.00 W/m2 unknown
13:44 87.8 °F 68 °F 30.2 in NNE 6.8 mph 9.3 mph 53% 0 in 858.00 W/m2 unknown
13:49 87.8 °F 66.2 °F 30.2 in ENE 5.6 mph 8.7 mph 51% 0 in 858.00 W/m2 unknown
13:54 87.8 °F 68 °F 30.2 in NE 3.1 mph 8.1 mph 53% 0 in 861.00 W/m2 unknown
13:59 87.8 °F 68 °F 30.2 in NNE 5 mph 8.1 mph 52% 0 in 856.00 W/m2 unknown
14:04 87.8 °F 66.2 °F 30.2 in ENE 5 mph 6.8 mph 50% 0 in 853.00 W/m2 unknown
14:09 87.8 °F 66.2 °F 30.2 in South 5.6 mph 8.1 mph 49% 0 in 856.00 W/m2 unknown
14:14 87.8 °F 64.4 °F 30.2 in SW 5 mph 8.1 mph 48% 0 in 856.00 W/m2 unknown
14:19 87.8 °F 64.4 °F 30.2 in WSW 5.6 mph 6.8 mph 48% 0 in 849.00 W/m2 unknown
14:24 87.8 °F 64.4 °F 30.2 in SW 5 mph 6.8 mph 47% 0 in 849.00 W/m2 unknown
14:29 87.8 °F 66.2 °F 30.2 in SSW 6.8 mph 10.6 mph 49% 0 in 847.00 W/m2 unknown
14:34 87.8 °F 64.4 °F 30.2 in SSE 6.2 mph 10.6 mph 46% 0 in 837.00 W/m2 unknown
14:39 87.8 °F 64.4 °F 30.2 in SSE 3.1 mph 9.9 mph 46% 0 in 837.00 W/m2 unknown
14:44 87.8 °F 62.6 °F 30.2 in ESE 3.1 mph 6.2 mph 45% 0 in 837.00 W/m2 unknown
14:49 87.8 °F 64.4 °F 30.2 in NW 2.5 mph 3.7 mph 47% 0 in 830.00 W/m2 unknown
14:54 87.8 °F 64.4 °F 30.2 in WSW 5.6 mph 6.8 mph 47% 0 in 826.00 W/m2 unknown
14:59 87.8 °F 64.4 °F 30.2 in WSW 4.3 mph 6.8 mph 47% 0 in 821.00 W/m2 unknown
15:04 87.8 °F 64.4 °F 30.1 in SW 5 mph 6.8 mph 46% 0 in 816.00 W/m2 unknown
15:09 87.8 °F 64.4 °F 30.1 in WSW 5 mph 6.8 mph 46% 0 in 812.00 W/m2 unknown
15:14 87.8 °F 64.4 °F 30.1 in NNW 3.1 mph 6.8 mph 46% 0 in 805.00 W/m2 unknown
15:19 87.8 °F 64.4 °F 30.1 in WNW 2.5 mph 5 mph 46% 0 in 802.00 W/m2 unknown
15:24 87.8 °F 64.4 °F 30.1 in SSW 5 mph 6.8 mph 44% 0 in 800.00 W/m2 unknown
15:29 87.8 °F 64.4 °F 30.1 in NW 2.5 mph 3.7 mph 45% 0 in 786.00 W/m2 unknown
15:34 89.6 °F 64.4 °F 30.1 in WSW 4.3 mph 6.8 mph 45% 0 in 777.00 W/m2 unknown
15:39 89.6 °F 64.4 °F 30.1 in SSE 2.5 mph 3.7 mph 44% 0 in 777.00 W/m2 unknown
15:44 89.6 °F 64.4 °F 30.1 in SW 5 mph 6.8 mph 44% 0 in 763.00 W/m2 unknown
15:49 89.6 °F 64.4 °F 30.1 in SW 3.7 mph 6.8 mph 43% 0 in 759.00 W/m2 unknown
15:54 89.6 °F 64.4 °F 30.1 in SW 3.7 mph 6.2 mph 43% 0 in 754.00 W/m2 unknown
15:59 89.6 °F 64.4 °F 30.1 in WSW 3.7 mph 6.2 mph 44% 0 in 742.00 W/m2 unknown
16:04 89.6 °F 64.4 °F 30.1 in SE 5 mph 6.8 mph 45% 0 in 735.00 W/m2 unknown
16:09 89.6 °F 64.4 °F 30.1 in SSE 5 mph 6.8 mph 43% 0 in 724.00 W/m2 unknown
16:14 89.6 °F 62.6 °F 30.1 in East 4.3 mph 6.8 mph 43% 0 in 710.00 W/m2 unknown
16:19 89.6 °F 62.6 °F 30.1 in SE 5 mph 6.8 mph 42% 0 in 703.00 W/m2 unknown
16:24 89.6 °F 64.4 °F 30.1 in SW 4.3 mph 6.8 mph 43% 0 in 689.00 W/m2 unknown
16:29 89.6 °F 62.6 °F 30.1 in South 3.1 mph 6.2 mph 42% 0 in 684.00 W/m2 unknown
16:34 89.6 °F 64.4 °F 30.1 in SSW 1.2 mph 5 mph 45% 0 in 675.00 W/m2 unknown
16:39 89.6 °F 64.4 °F 30.1 in SW 3.7 mph 5 mph 44% 0 in 666.00 W/m2 unknown
16:44 89.6 °F 64.4 °F 30.1 in West 5 mph 6.2 mph 43% 0 in 657.00 W/m2 unknown
16:49 89.6 °F 64.4 °F 30.1 in WNW 3.1 mph 6.2 mph 44% 0 in 640.00 W/m2 unknown
16:54 89.6 °F 66.2 °F 30.1 in NW 3.7 mph 6.2 mph 45% 0 in 628.00 W/m2 unknown
16:59 89.6 °F 66.2 °F 30.1 in WNW 3.7 mph 6.2 mph 45% 0 in 613.00 W/m2 unknown
17:04 89.6 °F 64.4 °F 30.1 in WSW 4.3 mph 5 mph 44% 0 in 606.00 W/m2 unknown
17:09 89.6 °F 64.4 °F 30.1 in NW 3.1 mph 5 mph 43% 0 in 596.00 W/m2 unknown
17:14 89.6 °F 64.4 °F 30.1 in West 3.7 mph 5 mph 43% 0 in 578.00 W/m2 unknown
17:19 89.6 °F 64.4 °F 30.1 in SW 3.7 mph 5 mph 42% 0 in 568.00 W/m2 unknown
17:24 89.6 °F 64.4 °F 30.1 in West 3.1 mph 5 mph 42% 0 in 555.00 W/m2 unknown
17:29 89.6 °F 62.6 °F 30.1 in WSW 1.9 mph 5 mph 42% 0 in 545.00 W/m2 unknown
17:34 89.6 °F 64.4 °F 30.1 in South 3.7 mph 6.2 mph 43% 0 in 531.00 W/m2 unknown
17:39 89.6 °F 64.4 °F 30.1 in SSW 5 mph 6.8 mph 42% 0 in 520.00 W/m2 unknown
17:44 89.6 °F 62.6 °F 30.1 in SW 5 mph 6.8 mph 41% 0 in 504.00 W/m2 unknown
17:49 89.6 °F 64.4 °F 30.1 in SSW 4.3 mph 6.2 mph 42% 0 in 487.00 W/m2 unknown
17:54 89.6 °F 64.4 °F 30.1 in South 2.5 mph 6.2 mph 42% 0 in 475.00 W/m2 unknown
17:59 89.6 °F 64.4 °F 30.1 in WSW 1.9 mph 3.7 mph 43% 0 in 462.00 W/m2 unknown
18:04 89.6 °F 64.4 °F 30.1 in NW 1.2 mph 2.5 mph 43% 0 in 446.00 W/m2 unknown
18:09 89.6 °F 64.4 °F 30.1 in SSW 3.1 mph 5 mph 43% 0 in 434.00 W/m2 unknown
18:14 89.6 °F 62.6 °F 30.1 in South 3.1 mph 5 mph 41% 0 in 422.00 W/m2 unknown
18:19 89.6 °F 62.6 °F 30.1 in South 3.1 mph 5 mph 41% 0 in 411.00 W/m2 unknown
18:24 89.6 °F 60.8 °F 30.1 in SSW 3.1 mph 5 mph 40% 0 in 396.00 W/m2 unknown
18:29 89.6 °F 62.6 °F 30.1 in SSE 2.5 mph 3.7 mph 42% 0 in 381.00 W/m2 unknown
18:34 89.6 °F 62.6 °F 30.1 in WSW 2.5 mph 3.7 mph 41% 0 in 369.00 W/m2 unknown
18:39 89.6 °F 62.6 °F 30.1 in WSW 3.7 mph 3.7 mph 41% 0 in 353.00 W/m2 unknown
18:44 89.6 °F 62.6 °F 30.1 in West 2.5 mph 3.7 mph 41% 0 in 339.00 W/m2 unknown
18:49 89.6 °F 64.4 °F 30.1 in SW 2.5 mph 3.7 mph 44% 0 in 325.00 W/m2 unknown
18:54 89.6 °F 64.4 °F 30.1 in ESE 3.1 mph 5 mph 45% 0 in 309.00 W/m2 unknown
18:59 87.8 °F 64.4 °F 30.1 in East 2.5 mph 5 mph 44% 0 in 292.00 W/m2 unknown
19:04 87.8 °F 64.4 °F 30.1 in East 2.5 mph 5 mph 45% 0 in 276.00 W/m2 unknown
19:09 87.8 °F 64.4 °F 30.1 in ESE 2.5 mph 3.7 mph 45% 0 in 264.00 W/m2 unknown
19:14 87.8 °F 64.4 °F 30.1 in East 2.5 mph 3.7 mph 47% 0 in 248.00 W/m2 unknown
19:19 87.8 °F 64.4 °F 30.1 in East 2.5 mph 3.7 mph 47% 0 in 237.00 W/m2 unknown
19:24 87.8 °F 64.4 °F 30.1 in SE 3.1 mph 5 mph 47% 0 in 223.00 W/m2 unknown
19:29 87.8 °F 62.6 °F 30.1 in SSW 1.9 mph 5 mph 43% 0 in 209.00 W/m2 unknown
19:34 89.6 °F 64.4 °F 30.1 in WSW 1.9 mph 3.7 mph 44% 0 in 193.00 W/m2 unknown
19:39 87.8 °F 64.4 °F 30.1 in East 3.1 mph 5 mph 46% 0 in 178.00 W/m2 unknown
19:44 87.8 °F 62.6 °F 30.1 in NE 2.5 mph 3.7 mph 44% 0 in 160.00 W/m2 unknown
19:49 87.8 °F 62.6 °F 30.1 in NNE 2.5 mph 3.7 mph 44% 0 in 142.00 W/m2 unknown
19:54 87.8 °F 62.6 °F 30.1 in NNW 1.9 mph 3.7 mph 44% 0 in 130.00 W/m2 unknown
19:59 87.8 °F 62.6 °F 30.1 in NNE 1.9 mph 3.7 mph 43% 0 in 114.00 W/m2 unknown
20:04 87.8 °F 62.6 °F 30.1 in NNE 3.1 mph 3.7 mph 43% 0 in 90.00 W/m2 unknown
20:09 87.8 °F 64.4 °F 30.1 in NE 2.5 mph 3.7 mph 48% 0 in 83.00 W/m2 unknown
20:14 86 °F 66.2 °F 30.1 in NNE 1.9 mph 3.7 mph 52% 0 in 21.00 W/m2 unknown
20:19 86 °F 68 °F 30.1 in NNW 1.2 mph 3.1 mph 55% 0 in 19.00 W/m2 unknown
20:24 86 °F 68 °F 30.1 in NW 0.6 mph 1.9 mph 57% 0 in 18.00 W/m2 unknown
20:29 84.2 °F 68 °F 30.1 in Calm   1.2 mph 57% 0 in 16.00 W/m2 unknown
20:34 84.2 °F 68 °F 30.1 in Calm   1.2 mph 57% 0 in 14.00 W/m2 unknown
20:39 84.2 °F 66.2 °F 30.1 in Calm   1.2 mph 56% 0 in 12.00 W/m2 unknown
20:44 84.2 °F 66.2 °F 30.1 in Calm   1.2 mph 57% 0 in 11.00 W/m2 unknown
20:49 84.2 °F 68 °F 30.1 in Calm     58% 0 in 9.00 W/m2 unknown
20:54 82.4 °F 66.2 °F 30.1 in Calm     58% 0 in 7.00 W/m2 unknown
20:59 82.4 °F 66.2 °F 30.1 in Calm     59% 0 in 5.00 W/m2 unknown
21:04 82.4 °F 66.2 °F 30.1 in Calm     59% 0 in 0.00 W/m2 unknown
21:09 82.4 °F 66.2 °F 30.1 in Calm     61% 0 in 0.00 W/m2 unknown
21:14 82.4 °F 66.2 °F 30.1 in Calm     61% 0 in 0.00 W/m2 unknown
21:19 80.6 °F 66.2 °F 30.1 in Calm     62% 0 in 0.00 W/m2 unknown
21:24 80.6 °F 66.2 °F 30.1 in Calm     62% 0 in 0.00 W/m2 unknown
21:29 80.6 °F 66.2 °F 30.1 in Calm     61% 0 in 0.00 W/m2 unknown
21:34 80.6 °F 66.2 °F 30.1 in NW 1.2 mph 2.5 mph 61% 0 in 0.00 W/m2 unknown
21:39 78.8 °F 64.4 °F 30.1 in North 1.2 mph 2.5 mph 59% 0 in 0.00 W/m2 unknown
21:44 78.8 °F 64.4 °F 30.1 in NNE 1.9 mph 2.5 mph 61% 0 in 0.00 W/m2 unknown
21:49 78.8 °F 64.4 °F 30.1 in NNE 1.2 mph 2.5 mph 62% 0 in 0.00 W/m2 unknown
21:54 78.8 °F 64.4 °F 30.1 in NNE 1.9 mph 2.5 mph 65% 0 in 0.00 W/m2 unknown
21:59 77 °F 64.4 °F 30.1 in NNE 1.2 mph 2.5 mph 65% 0 in 0.00 W/m2 unknown
22:04 77 °F 66.2 °F 30.1 in NNE 0.6 mph 1.9 mph 66% 0 in 0.00 W/m2 unknown
22:09 77 °F 66.2 °F 30.1 in NNE 1.2 mph 1.2 mph 66% 0 in 0.00 W/m2 unknown
22:14 77 °F 66.2 °F 30.1 in NNE 1.2 mph 1.2 mph 67% 0 in 0.00 W/m2 unknown
22:19 77 °F 66.2 °F 30.1 in ENE 3.1 mph 5 mph 68% 0 in 0.00 W/m2 unknown
22:24 77 °F 66.2 °F 30.1 in East 3.7 mph 5 mph 69% 0 in 0.00 W/m2 unknown
22:29 77 °F 66.2 °F 30.1 in East 1.9 mph 5 mph 70% 0 in 0.00 W/m2 unknown
22:34 77 °F 66.2 °F 30.1 in East 0.6 mph 3.1 mph 71% 0 in 0.00 W/m2 unknown
22:39 77 °F 66.2 °F 30.1 in Calm   1.2 mph 71% 0 in 0.00 W/m2 unknown
22:44 77 °F 66.2 °F 30.1 in Calm     70% 0 in 0.00 W/m2 unknown
22:49 77 °F 66.2 °F 30.1 in Calm     70% 0 in 0.00 W/m2 unknown
22:54 77 °F 68 °F 30.1 in Calm     71% 0 in 0.00 W/m2 unknown
22:59 77 °F 66.2 °F 30.1 in ESE 2.5 mph 3.7 mph 71% 0 in 0.00 W/m2 unknown
23:04 77 °F 66.2 °F 30.1 in ESE 3.1 mph 3.7 mph 70% 0 in 0.00 W/m2 unknown
23:09 77 °F 66.2 °F 30.1 in SE 3.1 mph 3.7 mph 71% 0 in 0.00 W/m2 unknown
23:14 75.2 °F 66.2 °F 30.1 in SE 3.1 mph 3.7 mph 74% 0 in 0.00 W/m2 unknown
23:19 75.2 °F 66.2 °F 30.1 in SE 2.5 mph 3.7 mph 74% 0 in 0.00 W/m2 unknown
23:24 77 °F 66.2 °F 30.1 in SE 3.7 mph 4.3 mph 73% 0 in 0.00 W/m2 unknown
23:29 77 °F 66.2 °F 30.1 in SE 1.9 mph 5 mph 69% 0 in 0.00 W/m2 unknown
23:34 77 °F 64.4 °F 30.1 in SE 1.9 mph 3.7 mph 67% 0 in 0.00 W/m2 unknown
23:39 77 °F 64.4 °F 30.1 in SE 1.9 mph 3.7 mph 67% 0 in 0.00 W/m2 unknown
23:44 77 °F 64.4 °F 30.1 in SE 1.9 mph 3.7 mph 67% 0 in 0.00 W/m2 unknown
23:49 77 °F 64.4 °F 30.1 in SE 2.5 mph 3.7 mph 67% 0 in 0.00 W/m2 unknown
23:54 77 °F 64.4 °F 30.1 in SE 1.9 mph 3.7 mph 68% 0 in 0.00 W/m2 unknown
23:59 75.2 °F 64.4 °F 30.1 in SE 1.9 mph 3.7 mph 69% 0 in 0.00 W/m2 unknown
Stazione Meteorologica MeteoMincio Rivalta s/M (MN)
Con i complimenti di Weather Underground - 4 mb



GLOSSARIO METEOROLOGICO
Pioggia
Precipitazione di gocce d'acqua di vario diametro, tra 0,5 e 7 mm. Le gocce di pioggia traggono origine dalle gocce di nube: quando quest'ultime diventano abbastanza grosse da poter cadere prendono il nome di gocce di pioggia. Una goccia di pioggia contiene circa centomila goccioline di nube e si forma per coalescenza fra gocce di nube piccole e più grosse. La pioggia minuta e persistente cade dagli altostrati che partono da quote molto basse. La pioggia intensa è prodotta dai nembostrati. Tanto più intensa è la pioggia, tanto è maggiore è lo sviluppo verticale della nube alla cui sommità sono presenti cristalli di ghiaccio. L'unità di misura adottata è il millimetro, che equivale ad un litro d'acqua per metro quadrato di superficie.
Share

Non seguire questo link o sarai bannato dal sito!